sensor_id;sensor_type;location;lat;lon;timestamp;pressure;altitude;pressure_sealevel;temperature;humidity
68994;BME280;56054;50.968;5.816;2024-01-30T00:02:22;101725.47;;;9.04;100.00
68994;BME280;56054;50.968;5.816;2024-01-30T00:05:29;101723.66;;;9.03;100.00
68994;BME280;56054;50.968;5.816;2024-01-30T00:08:36;101726.91;;;9.10;100.00
68994;BME280;56054;50.968;5.816;2024-01-30T00:11:43;101716.94;;;9.05;100.00
68994;BME280;56054;50.968;5.816;2024-01-30T00:14:50;101722.13;;;9.05;100.00
68994;BME280;56054;50.968;5.816;2024-01-30T00:17:57;101714.34;;;9.05;100.00
68994;BME280;56054;50.968;5.816;2024-01-30T00:21:04;101709.91;;;9.04;100.00
68994;BME280;56054;50.968;5.816;2024-01-30T00:24:11;101711.47;;;8.91;100.00
68994;BME280;56054;50.968;5.816;2024-01-30T00:27:18;101701.88;;;9.00;100.00
68994;BME280;56054;50.968;5.816;2024-01-30T00:30:26;101715.88;;;8.92;100.00
68994;BME280;56054;50.968;5.816;2024-01-30T00:33:32;101711.34;;;9.00;100.00
68994;BME280;56054;50.968;5.816;2024-01-30T00:36:39;101713.94;;;9.10;100.00
68994;BME280;56054;50.968;5.816;2024-01-30T00:39:46;101712.91;;;9.08;100.00
68994;BME280;56054;50.968;5.816;2024-01-30T00:42:55;101707.84;;;9.10;100.00
68994;BME280;56054;50.968;5.816;2024-01-30T00:46:01;101711.09;;;9.17;100.00
68994;BME280;56054;50.968;5.816;2024-01-30T00:49:08;101709.81;;;9.12;100.00
68994;BME280;56054;50.968;5.816;2024-01-30T00:52:15;101711.34;;;9.10;100.00
68994;BME280;56054;50.968;5.816;2024-01-30T00:55:22;101700.84;;;9.09;100.00
68994;BME280;56054;50.968;5.816;2024-01-30T00:58:29;101698.50;;;9.12;100.00
68994;BME280;56054;50.968;5.816;2024-01-30T01:01:36;101701.47;;;9.16;100.00
68994;BME280;56054;50.968;5.816;2024-01-30T01:04:44;101692.94;;;9.17;100.00
68994;BME280;56054;50.968;5.816;2024-01-30T01:07:50;101696.56;;;9.19;100.00
68994;BME280;56054;50.968;5.816;2024-01-30T01:10:57;101698.63;;;9.13;100.00
68994;BME280;56054;50.968;5.816;2024-01-30T01:14:04;101700.81;;;9.19;100.00
68994;BME280;56054;50.968;5.816;2024-01-30T01:17:12;101700.81;;;9.19;100.00
68994;BME280;56054;50.968;5.816;2024-01-30T01:20:18;101694.88;;;9.30;100.00
68994;BME280;56054;50.968;5.816;2024-01-30T01:23:25;101693.41;;;9.34;100.00
68994;BME280;56054;50.968;5.816;2024-01-30T01:26:32;101704.06;;;9.37;100.00
68994;BME280;56054;50.968;5.816;2024-01-30T01:29:39;101690.81;;;9.34;100.00
68994;BME280;56054;50.968;5.816;2024-01-30T01:32:49;101696.66;;;9.31;100.00
68994;BME280;56054;50.968;5.816;2024-01-30T01:35:56;101688.38;;;9.35;100.00
68994;BME280;56054;50.968;5.816;2024-01-30T01:39:03;101690.31;;;9.38;100.00
68994;BME280;56054;50.968;5.816;2024-01-30T01:42:10;101683.19;;;9.35;100.00
68994;BME280;56054;50.968;5.816;2024-01-30T01:45:18;101688.13;;;9.32;100.00
68994;BME280;56054;50.968;5.816;2024-01-30T01:48:26;101684.25;;;9.27;100.00
68994;BME280;56054;50.968;5.816;2024-01-30T01:51:35;101670.00;;;9.22;100.00
68994;BME280;56054;50.968;5.816;2024-01-30T01:54:43;101669.34;;;9.25;100.00
68994;BME280;56054;50.968;5.816;2024-01-30T01:57:50;101671.94;;;9.25;100.00
68994;BME280;56054;50.968;5.816;2024-01-30T02:00:58;101671.78;;;9.23;100.00
68994;BME280;56054;50.968;5.816;2024-01-30T02:04:06;101668.69;;;9.27;100.00
68994;BME280;56054;50.968;5.816;2024-01-30T02:07:13;101663.34;;;9.36;100.00
68994;BME280;56054;50.968;5.816;2024-01-30T02:10:27;101660.22;;;9.40;100.00
68994;BME280;56054;50.968;5.816;2024-01-30T02:13:34;101667.06;;;9.50;100.00
68994;BME280;56054;50.968;5.816;2024-01-30T02:16:41;101654.31;;;9.63;100.00
68994;BME280;56054;50.968;5.816;2024-01-30T02:19:49;101655.63;;;9.58;100.00
68994;BME280;56054;50.968;5.816;2024-01-30T02:22:55;101659.59;;;9.75;100.00
68994;BME280;56054;50.968;5.816;2024-01-30T02:26:11;101657.56;;;9.71;100.00
68994;BME280;56054;50.968;5.816;2024-01-30T02:29:18;101660.50;;;9.75;100.00
68994;BME280;56054;50.968;5.816;2024-01-30T02:32:26;101659.06;;;9.79;100.00
68994;BME280;56054;50.968;5.816;2024-01-30T02:35:32;101661.25;;;9.84;100.00
68994;BME280;56054;50.968;5.816;2024-01-30T02:38:39;101648.81;;;9.80;100.00
68994;BME280;56054;50.968;5.816;2024-01-30T02:41:46;101642.84;;;9.81;100.00
68994;BME280;56054;50.968;5.816;2024-01-30T02:44:53;101648.28;;;9.84;100.00
68994;BME280;56054;50.968;5.816;2024-01-30T02:48:00;101634.81;;;9.78;100.00
68994;BME280;56054;50.968;5.816;2024-01-30T02:51:07;101635.84;;;9.80;100.00
68994;BME280;56054;50.968;5.816;2024-01-30T02:54:14;101642.31;;;9.85;100.00
68994;BME280;56054;50.968;5.816;2024-01-30T02:57:21;101632.69;;;9.84;100.00
68994;BME280;56054;50.968;5.816;2024-01-30T03:00:28;101643.03;;;9.95;100.00
68994;BME280;56054;50.968;5.816;2024-01-30T03:03:35;101642.03;;;9.93;100.00
68994;BME280;56054;50.968;5.816;2024-01-30T03:06:46;101640.88;;;10.11;100.00
68994;BME280;56054;50.968;5.816;2024-01-30T03:09:52;101643.03;;;10.17;100.00
68994;BME280;56054;50.968;5.816;2024-01-30T03:12:59;101639.91;;;10.21;100.00
68994;BME280;56054;50.968;5.816;2024-01-30T03:16:08;101640.03;;;10.22;100.00
68994;BME280;56054;50.968;5.816;2024-01-30T03:19:15;101641.84;;;10.23;100.00
68994;BME280;56054;50.968;5.816;2024-01-30T03:22:21;101646.00;;;10.32;100.00
68994;BME280;56054;50.968;5.816;2024-01-30T03:25:28;101640.53;;;10.28;100.00
68994;BME280;56054;50.968;5.816;2024-01-30T03:28:35;101635.63;;;10.21;100.00
68994;BME280;56054;50.968;5.816;2024-01-30T03:31:43;101633.53;;;10.27;100.00
68994;BME280;56054;50.968;5.816;2024-01-30T03:34:49;101620.69;;;10.29;100.00
68994;BME280;56054;50.968;5.816;2024-01-30T03:37:56;101626.00;;;10.31;100.00
68994;BME280;56054;50.968;5.816;2024-01-30T03:41:07;101623.88;;;10.37;100.00
68994;BME280;56054;50.968;5.816;2024-01-30T03:44:14;101617.94;;;10.27;100.00
68994;BME280;56054;50.968;5.816;2024-01-30T03:47:21;101620.84;;;10.42;100.00
68994;BME280;56054;50.968;5.816;2024-01-30T03:50:28;101615.81;;;10.34;100.00
68994;BME280;56054;50.968;5.816;2024-01-30T03:53:35;101620.50;;;10.38;100.00
68994;BME280;56054;50.968;5.816;2024-01-30T03:56:42;101619.34;;;10.34;100.00
68994;BME280;56054;50.968;5.816;2024-01-30T03:59:49;101623.53;;;10.32;100.00
68994;BME280;56054;50.968;5.816;2024-01-30T04:02:56;101618.56;;;10.35;100.00
68994;BME280;56054;50.968;5.816;2024-01-30T04:06:04;101613.50;;;10.37;100.00
68994;BME280;56054;50.968;5.816;2024-01-30T04:09:11;101624.28;;;10.31;100.00
68994;BME280;56054;50.968;5.816;2024-01-30T04:12:18;101616.84;;;10.36;100.00
68994;BME280;56054;50.968;5.816;2024-01-30T04:15:26;101615.06;;;10.35;100.00
68994;BME280;56054;50.968;5.816;2024-01-30T04:18:32;101615.59;;;10.31;100.00
68994;BME280;56054;50.968;5.816;2024-01-30T04:21:39;101613.22;;;10.34;100.00
68994;BME280;56054;50.968;5.816;2024-01-30T04:24:46;101608.03;;;10.34;100.00
68994;BME280;56054;50.968;5.816;2024-01-30T04:27:53;101610.41;;;10.31;100.00
68994;BME280;56054;50.968;5.816;2024-01-30T04:31:00;101607.28;;;10.35;100.00
68994;BME280;56054;50.968;5.816;2024-01-30T04:34:07;101606.38;;;10.34;100.00
68994;BME280;56054;50.968;5.816;2024-01-30T04:37:14;101608.09;;;10.45;100.00
68994;BME280;56054;50.968;5.816;2024-01-30T04:40:22;101612.16;;;10.42;100.00
68994;BME280;56054;50.968;5.816;2024-01-30T04:43:28;101606.66;;;10.49;100.00
68994;BME280;56054;50.968;5.816;2024-01-30T04:46:35;101609.25;;;10.49;100.00
68994;BME280;56054;50.968;5.816;2024-01-30T04:49:42;101611.28;;;10.53;100.00
68994;BME280;56054;50.968;5.816;2024-01-30T04:52:49;101598.06;;;10.50;100.00
68994;BME280;56054;50.968;5.816;2024-01-30T04:55:57;101609.94;;;10.58;100.00
68994;BME280;56054;50.968;5.816;2024-01-30T04:59:03;101599.78;;;10.61;100.00
68994;BME280;56054;50.968;5.816;2024-01-30T05:02:10;101601.13;;;10.56;100.00
68994;BME280;56054;50.968;5.816;2024-01-30T05:05:17;101607.25;;;10.57;100.00
68994;BME280;56054;50.968;5.816;2024-01-30T05:08:24;101613.09;;;10.54;100.00
68994;BME280;56054;50.968;5.816;2024-01-30T05:11:37;101602.22;;;10.48;100.00
68994;BME280;56054;50.968;5.816;2024-01-30T05:14:43;101606.34;;;10.56;100.00
68994;BME280;56054;50.968;5.816;2024-01-30T05:17:50;101607.00;;;10.54;100.00
68994;BME280;56054;50.968;5.816;2024-01-30T05:20:57;101600.66;;;10.50;100.00
68994;BME280;56054;50.968;5.816;2024-01-30T05:24:05;101607.91;;;10.54;100.00
68994;BME280;56054;50.968;5.816;2024-01-30T05:27:11;101597.50;;;10.54;100.00
68994;BME280;56054;50.968;5.816;2024-01-30T05:30:25;101597.88;;;10.59;100.00
68994;BME280;56054;50.968;5.816;2024-01-30T05:33:32;101600.47;;;10.59;100.00
68994;BME280;56054;50.968;5.816;2024-01-30T05:36:39;101597.50;;;10.54;100.00
68994;BME280;56054;50.968;5.816;2024-01-30T05:39:46;101593.56;;;10.59;100.00
68994;BME280;56054;50.968;5.816;2024-01-30T05:42:53;101597.97;;;10.60;100.00
68994;BME280;56054;50.968;5.816;2024-01-30T05:46:00;101602.72;;;10.54;100.00
68994;BME280;56054;50.968;5.816;2024-01-30T05:49:07;101592.78;;;10.60;100.00
68994;BME280;56054;50.968;5.816;2024-01-30T05:52:14;101593.56;;;10.59;100.00
68994;BME280;56054;50.968;5.816;2024-01-30T05:55:22;101606.88;;;10.52;100.00
68994;BME280;56054;50.968;5.816;2024-01-30T05:58:29;101597.38;;;10.53;100.00
68994;BME280;56054;50.968;5.816;2024-01-30T06:01:35;101595.69;;;10.53;100.00
68994;BME280;56054;50.968;5.816;2024-01-30T06:04:42;101600.78;;;10.52;100.00
68994;BME280;56054;50.968;5.816;2024-01-30T06:07:49;101598.84;;;10.49;100.00
68994;BME280;56054;50.968;5.816;2024-01-30T06:10:56;101598.06;;;10.50;100.00
68994;BME280;56054;50.968;5.816;2024-01-30T06:14:03;101595.69;;;10.53;100.00
68994;BME280;56054;50.968;5.816;2024-01-30T06:17:11;101594.69;;;10.51;100.00
68994;BME280;56054;50.968;5.816;2024-01-30T06:20:17;101599.09;;;10.52;100.00
68994;BME280;56054;50.968;5.816;2024-01-30T06:23:24;101604.06;;;10.49;100.00
68994;BME280;56054;50.968;5.816;2024-01-30T06:26:31;101598.41;;;10.55;100.00
68994;BME280;56054;50.968;5.816;2024-01-30T06:29:39;101591.41;;;10.54;100.00
68994;BME280;56054;50.968;5.816;2024-01-30T06:32:46;101592.09;;;10.51;100.00
68994;BME280;56054;50.968;5.816;2024-01-30T06:35:53;101599.88;;;10.51;100.00
68994;BME280;56054;50.968;5.816;2024-01-30T06:39:02;101590.03;;;10.47;100.00
68994;BME280;56054;50.968;5.816;2024-01-30T06:42:09;101590.75;;;10.56;100.00
68994;BME280;56054;50.968;5.816;2024-01-30T06:45:16;101584.38;;;10.53;100.00
68994;BME280;56054;50.968;5.816;2024-01-30T06:48:23;101594.00;;;10.54;100.00
68994;BME280;56054;50.968;5.816;2024-01-30T06:51:31;101594.78;;;10.53;100.00
68994;BME280;56054;50.968;5.816;2024-01-30T06:54:38;101590.63;;;10.55;100.00
68994;BME280;56054;50.968;5.816;2024-01-30T06:57:44;101599.53;;;10.58;100.00
68994;BME280;56054;50.968;5.816;2024-01-30T07:00:51;101602.50;;;10.63;100.00
68994;BME280;56054;50.968;5.816;2024-01-30T07:04:05;101606.78;;;10.62;100.00
68994;BME280;56054;50.968;5.816;2024-01-30T07:07:13;101609.28;;;10.61;100.00
68994;BME280;56054;50.968;5.816;2024-01-30T07:10:19;101612.00;;;10.62;100.00
68994;BME280;56054;50.968;5.816;2024-01-30T07:13:27;101614.00;;;10.55;100.00
68994;BME280;56054;50.968;5.816;2024-01-30T07:16:34;101607.91;;;10.54;100.00
68994;BME280;56054;50.968;5.816;2024-01-30T07:19:41;101616.47;;;10.53;100.00
68994;BME280;56054;50.968;5.816;2024-01-30T07:22:49;101626.19;;;10.56;100.00
68994;BME280;56054;50.968;5.816;2024-01-30T07:25:56;101624.16;;;10.52;100.00
68994;BME280;56054;50.968;5.816;2024-01-30T07:29:03;101617.13;;;10.50;100.00
68994;BME280;56054;50.968;5.816;2024-01-30T07:32:10;101640.78;;;10.54;100.00
68994;BME280;56054;50.968;5.816;2024-01-30T07:35:16;101647.66;;;10.53;100.00
68994;BME280;56054;50.968;5.816;2024-01-30T07:38:23;101650.03;;;10.50;100.00
68994;BME280;56054;50.968;5.816;2024-01-30T07:41:30;101645.63;;;10.49;100.00
68994;BME280;56054;50.968;5.816;2024-01-30T07:44:37;101659.81;;;10.42;100.00
68994;BME280;56054;50.968;5.816;2024-01-30T07:47:45;101645.25;;;10.44;100.00
68994;BME280;56054;50.968;5.816;2024-01-30T07:50:51;101655.66;;;10.44;100.00
68994;BME280;56054;50.968;5.816;2024-01-30T07:53:59;101665.69;;;10.40;100.00
68994;BME280;56054;50.968;5.816;2024-01-30T07:57:15;101672.81;;;10.42;100.00
68994;BME280;56054;50.968;5.816;2024-01-30T08:00:22;101662.66;;;10.45;100.00
68994;BME280;56054;50.968;5.816;2024-01-30T08:03:28;101675.78;;;10.47;100.00
68994;BME280;56054;50.968;5.816;2024-01-30T08:06:36;101681.50;;;10.43;100.00
68994;BME280;56054;50.968;5.816;2024-01-30T08:09:49;101691.13;;;10.44;100.00
68994;BME280;56054;50.968;5.816;2024-01-30T08:12:57;101705.03;;;10.44;100.00
68994;BME280;56054;50.968;5.816;2024-01-30T08:16:04;101702.44;;;10.44;100.00
68994;BME280;56054;50.968;5.816;2024-01-30T08:19:11;101704.91;;;10.43;100.00
68994;BME280;56054;50.968;5.816;2024-01-30T08:22:17;101706.47;;;10.41;100.00
68994;BME280;56054;50.968;5.816;2024-01-30T08:25:24;101708.69;;;10.36;100.00
68994;BME280;56054;50.968;5.816;2024-01-30T08:28:32;101709.34;;;10.34;100.00
68994;BME280;56054;50.968;5.816;2024-01-30T08:31:38;101720.53;;;10.33;100.00
68994;BME280;56054;50.968;5.816;2024-01-30T08:34:46;101713.78;;;10.35;100.00
68994;BME280;56054;50.968;5.816;2024-01-30T08:37:53;101706.88;;;10.35;100.00
68994;BME280;56054;50.968;5.816;2024-01-30T08:41:00;101711.66;;;10.41;100.00
68994;BME280;56054;50.968;5.816;2024-01-30T08:44:07;101710.88;;;10.42;100.00
68994;BME280;56054;50.968;5.816;2024-01-30T08:47:14;101723.31;;;10.46;100.00
68994;BME280;56054;50.968;5.816;2024-01-30T08:50:21;101719.28;;;10.49;100.00
68994;BME280;56054;50.968;5.816;2024-01-30T08:53:28;101721.34;;;10.54;100.00
68994;BME280;56054;50.968;5.816;2024-01-30T08:56:35;101713.88;;;10.58;100.00
68994;BME280;56054;50.968;5.816;2024-01-30T08:59:42;101721.81;;;10.60;100.00
68994;BME280;56054;50.968;5.816;2024-01-30T09:02:49;101723.44;;;10.69;100.00
68994;BME280;56054;50.968;5.816;2024-01-30T09:05:56;101718.75;;;10.76;100.00
68994;BME280;56054;50.968;5.816;2024-01-30T09:09:03;101724.19;;;10.79;100.00
68994;BME280;56054;50.968;5.816;2024-01-30T09:12:10;101725.97;;;10.80;100.00
68994;BME280;56054;50.968;5.816;2024-01-30T09:15:18;101724.63;;;10.85;100.00
68994;BME280;56054;50.968;5.816;2024-01-30T09:18:25;101733.38;;;10.85;100.00
68994;BME280;56054;50.968;5.816;2024-01-30T09:21:32;101742.53;;;10.92;100.00
68994;BME280;56054;50.968;5.816;2024-01-30T09:24:39;101737.22;;;10.90;100.00
68994;BME280;56054;50.968;5.816;2024-01-30T09:27:47;101733.16;;;10.94;100.00
68994;BME280;56054;50.968;5.816;2024-01-30T09:30:54;101736.78;;;10.96;100.00
68994;BME280;56054;50.968;5.816;2024-01-30T09:34:01;101744.72;;;10.98;100.00
68994;BME280;56054;50.968;5.816;2024-01-30T09:37:08;101750.50;;;11.05;100.00
68994;BME280;56054;50.968;5.816;2024-01-30T09:40:15;101737.28;;;11.02;100.00
68994;BME280;56054;50.968;5.816;2024-01-30T09:43:23;101740.78;;;11.03;100.00
68994;BME280;56054;50.968;5.816;2024-01-30T09:46:31;101754.00;;;11.06;100.00
68994;BME280;56054;50.968;5.816;2024-01-30T09:49:41;101754.38;;;11.10;100.00
68994;BME280;56054;50.968;5.816;2024-01-30T09:52:51;101759.56;;;11.10;100.00
68994;BME280;56054;50.968;5.816;2024-01-30T09:55:58;101758.00;;;11.12;100.00
68994;BME280;56054;50.968;5.816;2024-01-30T09:59:05;101757.19;;;11.13;100.00
68994;BME280;56054;50.968;5.816;2024-01-30T10:02:12;101762.53;;;11.15;100.00
68994;BME280;56054;50.968;5.816;2024-01-30T10:05:19;101764.81;;;11.22;100.00
68994;BME280;56054;50.968;5.816;2024-01-30T10:08:26;101760.66;;;11.24;100.00
68994;BME280;56054;50.968;5.816;2024-01-30T10:11:33;101762.81;;;11.30;100.00
68994;BME280;56054;50.968;5.816;2024-01-30T10:14:40;101766.66;;;11.35;100.00
68994;BME280;56054;50.968;5.816;2024-01-30T10:17:47;101771.06;;;11.36;100.00
68994;BME280;56054;50.968;5.816;2024-01-30T10:20:54;101772.34;;;11.41;100.00
68994;BME280;56054;50.968;5.816;2024-01-30T10:24:01;101776.88;;;11.44;100.00
68994;BME280;56054;50.968;5.816;2024-01-30T10:27:08;101782.31;;;11.47;100.00
68994;BME280;56054;50.968;5.816;2024-01-30T10:30:15;101781.63;;;11.49;100.00
68994;BME280;56054;50.968;5.816;2024-01-30T10:33:22;101780.81;;;11.50;100.00
68994;BME280;56054;50.968;5.816;2024-01-30T10:36:29;101786.38;;;11.55;100.00
68994;BME280;56054;50.968;5.816;2024-01-30T10:39:38;101774.16;;;11.54;100.00
68994;BME280;56054;50.968;5.816;2024-01-30T10:42:45;101776.53;;;11.51;100.00
68994;BME280;56054;50.968;5.816;2024-01-30T10:45:53;101770.09;;;11.57;100.00
68994;BME280;56054;50.968;5.816;2024-01-30T10:49:01;101771.44;;;11.52;100.00
68994;BME280;56054;50.968;5.816;2024-01-30T10:52:09;101774.84;;;11.51;100.00
68994;BME280;56054;50.968;5.816;2024-01-30T10:55:18;101773.28;;;11.53;100.00
68994;BME280;56054;50.968;5.816;2024-01-30T10:58:25;101776.53;;;11.63;100.00
68994;BME280;56054;50.968;5.816;2024-01-30T11:01:34;101778.94;;;11.60;100.00
68994;BME280;56054;50.968;5.816;2024-01-30T11:04:42;101780.19;;;11.65;100.00
68994;BME280;56054;50.968;5.816;2024-01-30T11:07:49;101775.78;;;11.64;100.00
68994;BME280;56054;50.968;5.816;2024-01-30T11:10:56;101787.09;;;11.64;100.00
68994;BME280;56054;50.968;5.816;2024-01-30T11:14:04;101798.72;;;11.57;100.00
68994;BME280;56054;50.968;5.816;2024-01-30T11:17:11;101789.88;;;11.55;100.00
68994;BME280;56054;50.968;5.816;2024-01-30T11:20:29;101789.13;;;11.56;100.00
68994;BME280;56054;50.968;5.816;2024-01-30T11:23:38;101789.88;;;11.55;100.00
68994;BME280;56054;50.968;5.816;2024-01-30T11:26:45;101790.91;;;11.57;100.00
68994;BME280;56054;50.968;5.816;2024-01-30T11:29:52;101785.94;;;11.61;100.00
68994;BME280;56054;50.968;5.816;2024-01-30T11:33:02;101786.06;;;11.62;100.00
68994;BME280;56054;50.968;5.816;2024-01-30T11:36:13;101796.59;;;11.64;100.00
68994;BME280;56054;50.968;5.816;2024-01-30T11:39:20;101787.53;;;11.59;100.00
68994;BME280;56054;50.968;5.816;2024-01-30T11:42:27;101789.88;;;11.55;100.00
68994;BME280;56054;50.968;5.816;2024-01-30T11:45:34;101789.53;;;11.51;100.00
68994;BME280;56054;50.968;5.816;2024-01-30T11:48:42;101775.75;;;11.52;100.00
68994;BME280;56054;50.968;5.816;2024-01-30T11:51:49;101786.72;;;11.48;100.00
68994;BME280;56054;50.968;5.816;2024-01-30T11:54:56;101774.72;;;11.50;100.00
68994;BME280;56054;50.968;5.816;2024-01-30T11:58:03;101786.84;;;11.49;100.00
68994;BME280;56054;50.968;5.816;2024-01-30T12:01:11;101778.00;;;11.47;100.00
68994;BME280;56054;50.968;5.816;2024-01-30T12:04:18;101778.91;;;11.48;100.00
68994;BME280;56054;50.968;5.816;2024-01-30T12:07:25;101781.63;;;11.49;100.00
68994;BME280;56054;50.968;5.816;2024-01-30T12:10:32;101781.41;;;11.46;100.00
68994;BME280;56054;50.968;5.816;2024-01-30T12:13:39;101780.59;;;11.47;100.00
68994;BME280;56054;50.968;5.816;2024-01-30T12:16:48;101769.84;;;11.43;100.00
68994;BME280;56054;50.968;5.816;2024-01-30T12:20:09;101774.28;;;11.44;100.00
68994;BME280;56054;50.968;5.816;2024-01-30T12:23:17;101783.66;;;11.42;100.00
68994;BME280;56054;50.968;5.816;2024-01-30T12:26:24;101773.91;;;11.39;100.00
68994;BME280;56054;50.968;5.816;2024-01-30T12:29:33;101781.16;;;11.43;100.00
68994;BME280;56054;50.968;5.816;2024-01-30T12:32:42;101779.22;;;11.41;100.00
68994;BME280;56054;50.968;5.816;2024-01-30T12:35:57;101780.47;;;11.46;100.00
68994;BME280;56054;50.968;5.816;2024-01-30T12:39:04;101791.09;;;11.37;100.00
68994;BME280;56054;50.968;5.816;2024-01-30T12:42:11;101788.94;;;11.31;100.00
68994;BME280;56054;50.968;5.816;2024-01-30T12:45:18;101792.91;;;11.38;100.00
68994;BME280;56054;50.968;5.816;2024-01-30T12:48:26;101793.56;;;11.35;100.00
68994;BME280;56054;50.968;5.816;2024-01-30T12:51:34;101791.69;;;11.45;100.00
68994;BME280;56054;50.968;5.816;2024-01-30T12:54:41;101797.88;;;11.35;100.00
68994;BME280;56054;50.968;5.816;2024-01-30T12:57:48;101807.81;;;11.29;100.00
68994;BME280;56054;50.968;5.816;2024-01-30T13:00:55;101815.94;;;11.22;100.00
68994;BME280;56054;50.968;5.816;2024-01-30T13:04:02;101805.78;;;11.25;100.00
68994;BME280;56054;50.968;5.816;2024-01-30T13:07:09;101817.88;;;11.24;100.00
68994;BME280;56054;50.968;5.816;2024-01-30T13:10:16;101814.03;;;11.31;100.00
68994;BME280;56054;50.968;5.816;2024-01-30T13:13:23;101806.13;;;11.29;100.00
68994;BME280;56054;50.968;5.816;2024-01-30T13:16:30;101815.88;;;11.32;100.00
68994;BME280;56054;50.968;5.816;2024-01-30T13:19:37;101804.19;;;11.27;100.00
68994;BME280;56054;50.968;5.816;2024-01-30T13:22:44;101820.03;;;11.30;100.00
68994;BME280;56054;50.968;5.816;2024-01-30T13:25:51;101820.50;;;11.36;100.00
68994;BME280;56054;50.968;5.816;2024-01-30T13:28:58;101817.81;;;11.34;100.00
68994;BME280;56054;50.968;5.816;2024-01-30T13:32:05;101816.47;;;11.40;100.00
68994;BME280;56054;50.968;5.816;2024-01-30T13:35:12;101817.22;;;11.39;100.00
68994;BME280;56054;50.968;5.816;2024-01-30T13:38:19;101819.28;;;11.43;100.00
68994;BME280;56054;50.968;5.816;2024-01-30T13:41:26;101829.59;;;11.41;100.00
68994;BME280;56054;50.968;5.816;2024-01-30T13:44:34;101830.22;;;11.27;100.00
68994;BME280;56054;50.968;5.816;2024-01-30T13:47:42;101833.31;;;11.11;100.00
68994;BME280;56054;50.968;5.816;2024-01-30T13:50:49;101839.59;;;11.03;100.00
68994;BME280;56054;50.968;5.816;2024-01-30T13:53:56;101841.19;;;11.01;100.00
68994;BME280;56054;50.968;5.816;2024-01-30T13:57:03;101843.19;;;10.93;100.00
68994;BME280;56054;50.968;5.816;2024-01-30T14:00:10;101849.72;;;10.88;100.00
68994;BME280;56054;50.968;5.816;2024-01-30T14:03:17;101846.75;;;10.83;100.00
68994;BME280;56054;50.968;5.816;2024-01-30T14:06:24;101837.06;;;10.92;100.00
68994;BME280;56054;50.968;5.816;2024-01-30T14:09:31;101851.03;;;10.83;100.00
68994;BME280;56054;50.968;5.816;2024-01-30T14:12:38;101851.63;;;10.68;100.00
68994;BME280;56054;50.968;5.816;2024-01-30T14:15:45;101858.66;;;10.59;100.00
68994;BME280;56054;50.968;5.816;2024-01-30T14:18:52;101856.31;;;10.62;100.00
68994;BME280;56054;50.968;5.816;2024-01-30T14:21:59;101865.97;;;10.53;100.00
68994;BME280;56054;50.968;5.816;2024-01-30T14:25:06;101865.97;;;10.53;100.00
68994;BME280;56054;50.968;5.816;2024-01-30T14:28:14;101877.28;;;10.54;100.00
68994;BME280;56054;50.968;5.816;2024-01-30T14:31:21;101866.38;;;10.47;100.00
68994;BME280;56054;50.968;5.816;2024-01-30T14:34:28;101891.47;;;10.47;100.00
68994;BME280;56054;50.968;5.816;2024-01-30T14:37:35;101895.09;;;10.49;100.00
68994;BME280;56054;50.968;5.816;2024-01-30T14:40:42;101900.53;;;10.52;100.00
68994;BME280;56054;50.968;5.816;2024-01-30T14:43:49;101905.50;;;10.49;100.00
68994;BME280;56054;50.968;5.816;2024-01-30T14:46:56;101906.25;;;10.48;100.00
68994;BME280;56054;50.968;5.816;2024-01-30T14:50:04;101905.63;;;10.40;100.00
68994;BME280;56054;50.968;5.816;2024-01-30T14:53:11;101906.53;;;10.41;100.00
68994;BME280;56054;50.968;5.816;2024-01-30T14:56:18;101905.88;;;10.43;100.00
68994;BME280;56054;50.968;5.816;2024-01-30T14:59:25;101904.06;;;10.42;100.00
68994;BME280;56054;50.968;5.816;2024-01-30T15:02:32;101906.28;;;10.38;100.00
68994;BME280;56054;50.968;5.816;2024-01-30T15:05:39;101932.28;;;10.38;100.00
68994;BME280;56054;50.968;5.816;2024-01-30T15:08:46;101922.66;;;10.37;100.00
68994;BME280;56054;50.968;5.816;2024-01-30T15:11:53;101936.81;;;10.40;100.00
68994;BME280;56054;50.968;5.816;2024-01-30T15:15:00;101933.56;;;10.43;100.00
68994;BME280;56054;50.968;5.816;2024-01-30T15:18:07;101947.63;;;10.35;100.00
68994;BME280;56054;50.968;5.816;2024-01-30T15:21:15;101947.63;;;10.35;100.00
68994;BME280;56054;50.968;5.816;2024-01-30T15:24:22;101938.78;;;10.33;100.00
68994;BME280;56054;50.968;5.816;2024-01-30T15:27:29;101936.69;;;10.28;100.00
68994;BME280;56054;50.968;5.816;2024-01-30T15:30:36;101946.81;;;10.25;100.00
68994;BME280;56054;50.968;5.816;2024-01-30T15:33:43;101956.41;;;10.16;100.00
68994;BME280;56054;50.968;5.816;2024-01-30T15:36:50;101966.44;;;10.22;100.00
68994;BME280;56054;50.968;5.816;2024-01-30T15:39:57;101966.44;;;10.22;100.00
68994;BME280;56054;50.968;5.816;2024-01-30T15:43:04;101970.69;;;10.21;100.00
68994;BME280;56054;50.968;5.816;2024-01-30T15:46:11;101966.69;;;10.15;100.00
68994;BME280;56054;50.968;5.816;2024-01-30T15:49:18;101974.09;;;10.10;100.00
68994;BME280;56054;50.968;5.816;2024-01-30T15:52:25;101985.25;;;10.09;100.00
68994;BME280;56054;50.968;5.816;2024-01-30T15:55:32;101980.69;;;10.06;100.00
68994;BME280;56054;50.968;5.816;2024-01-30T15:58:39;101988.88;;;10.11;100.00
68994;BME280;56054;50.968;5.816;2024-01-30T16:01:46;101993.94;;;9.99;100.00
68994;BME280;56054;50.968;5.816;2024-01-30T16:04:53;101996.44;;;9.98;100.00
68994;BME280;56054;50.968;5.816;2024-01-30T16:08:00;102012.13;;;9.99;100.00
68994;BME280;56054;50.968;5.816;2024-01-30T16:11:08;102010.16;;;9.97;100.00